Main page
METAR-TAF:

METAR-TAF

Airports :

Clines Corners, New Mexico, United States

latitude: 35-00N, longitude: 105-40W, elevation: 7085 ft

Current weather observation

The report was made 32 minutes ago, at 02:53 UTC
Wind 16 mph from the East/Northeast with gusts up to 26 mph
Temperature 64°F
Humidity 68%
Pressure 30.29 in. Hg
Visibility: 10 miles
Clear sky

METAR: KCQC 200253Z AUTO 06014G23KT 10SM CLR 18/12 A3029 RMK AO2 PK WND 05028/0230 SLP163 T01830122 53026

Time: 21:25 (03:25 UTC)


TAF: missing

Weather observations and forecasts of more than 4000 airports (METAR and TAF reports).

The available stations are represented by yellow and red dots on the map.

Hover mouse over dot to see the name of the station.

Then click to see weather observations and forecasts.

To change the map : click on the green buttons with a black cross to zoom in, on the green button with a dash to zoom out, or on the green arrows for adjacent maps.


METAR-TAF: